Time;durP1;ratioP1;P1;durP2;ratioP2;P2;SDS_P1;SDS_P2;PMS_P1;PMS_P2;Temp;Humidity;BMP_temperature;BMP_pressure;BME280_temperature;BME280_humidity;BME280_pressure;Samples;Min_cycle;Max_cycle;Signal;HPM_P1;HPM_P2
2022/12/21 00:02:16;;;;;;;48.25;13.73;;;;;;;-2.18;95.77;98131.94;4987681;28;20054;-61
2022/12/21 00:04:43;;;;;;;29.58;10.35;;;;;;;-2.68;96.67;98055.69;4987404;28;20061;-55
2022/12/21 00:07:11;;;;;;;33.53;11.70;;;;;;;-2.48;96.85;98077.50;4998394;28;20120;-60
2022/12/21 00:09:38;;;;;;;32.45;13.15;;;;;;;-2.14;96.28;98127.63;4998271;28;20505;-60
2022/12/21 00:12:05;;;;;;;25.60;8.77;;;;;;;-2.10;94.36;98128.75;4987251;28;20054;-61
2022/12/21 00:14:31;;;;;;;20.98;8.05;;;;;;;-2.45;95.03;98108.72;4987191;28;20086;-60
2022/12/21 00:16:58;;;;;;;17.73;7.32;;;;;;;-2.41;96.26;98102.50;4987180;28;20061;-60
2022/12/21 00:19:25;;;;;;;15.23;6.65;;;;;;;-2.25;95.82;98120.53;4987512;28;20584;-60
2022/12/21 00:21:52;;;;;;;19.98;7.22;;;;;;;-2.37;96.34;98094.69;4986919;28;20070;-60
2022/12/21 00:24:18;;;;;;;21.48;7.32;;;;;;;-2.65;95.45;98044.31;4987521;28;20061;-56
2022/12/21 00:26:45;;;;;;;16.55;6.43;;;;;;;-2.27;95.87;98111.81;4987040;28;20505;-56
2022/12/21 00:29:12;;;;;;;21.90;7.80;;;;;;;-2.28;95.46;98110.19;4985293;28;20101;-56
2022/12/21 00:31:41;;;;;;;17.83;7.63;;;;;;;-2.32;96.14;98114.50;4986684;28;20510;-61
2022/12/21 00:34:17;;;;;;;14.13;5.35;;;;;;;-2.54;96.05;98078.56;4986966;28;20058;-56
2022/12/21 00:36:45;;;;;;;14.68;5.72;;;;;;;-2.32;96.99;98095.50;4986498;28;20425;-56
2022/12/21 00:39:16;;;;;;;13.65;6.10;;;;;;;-2.29;96.84;98103.13;4987270;28;20238;-61
2022/12/21 00:41:43;;;;;;;15.25;5.80;;;;;;;-2.28;95.19;98093.91;4985154;28;20050;-61
2022/12/21 00:44:10;;;;;;;26.63;8.35;;;;;;;-2.53;94.91;98047.63;4985523;28;20058;-60
2022/12/21 00:46:36;;;;;;;27.35;9.52;;;;;;;-2.76;95.00;98031.78;4986614;28;20529;-61
2022/12/21 00:49:05;;;;;;;30.77;11.63;;;;;;;-2.52;94.79;98064.72;5001740;28;20129;-61
2022/12/21 00:51:34;;;;;;;26.55;10.45;;;;;;;-2.51;94.29;98045.47;4986574;28;20576;-56
2022/12/21 00:54:02;;;;;;;18.13;6.90;;;;;;;-2.33;94.55;98074.91;4987060;28;20062;-57
2022/12/21 00:56:29;;;;;;;19.90;8.23;;;;;;;-2.42;95.72;98071.03;4984934;28;20050;-56
2022/12/21 00:58:56;;;;;;;22.80;9.25;;;;;;;-2.80;95.74;98014.41;4986492;28;20494;-57
2022/12/21 01:01:29;;;;;;;21.73;9.88;;;;;;;-2.35;95.20;98066.19;4986268;28;20506;-56
2022/12/21 01:03:57;;;;;;;31.27;13.02;;;;;;;-2.40;95.43;98062.66;4984661;28;20559;-56
2022/12/21 01:06:33;;;;;;;39.60;14.98;;;;;;;-2.43;95.36;98058.56;5004692;28;20135;-62
2022/12/21 01:09:00;;;;;;;32.80;11.93;;;;;;;-3.11;95.93;97970.03;5005802;28;20050;-61
2022/12/21 01:11:28;;;;;;;26.00;11.25;;;;;;;-2.53;96.53;98077.47;5005895;28;20127;-58
2022/12/21 01:13:56;;;;;;;25.67;11.13;;;;;;;-2.95;96.71;97995.31;5003969;28;20062;-61
2022/12/21 01:16:29;;;;;;;23.30;8.65;;;;;;;-2.49;95.85;98054.19;5005457;28;20096;-62
2022/12/21 01:18:56;;;;;;;23.02;9.63;;;;;;;-2.64;97.18;98058.69;5005609;28;20177;-62
2022/12/21 01:21:26;;;;;;;24.27;8.82;;;;;;;-2.52;97.12;98054.72;4991584;28;20159;-62
2022/12/21 01:23:54;;;;;;;24.77;9.75;;;;;;;-3.04;97.00;97999.59;4984440;28;20058;-61
2022/12/21 01:26:22;;;;;;;21.42;8.32;;;;;;;-2.89;96.98;97982.63;4984753;28;20050;-62
2022/12/21 01:28:49;;;;;;;21.20;6.35;;;;;;;-2.49;96.75;98047.94;4985246;28;20050;-61
2022/12/21 01:31:16;;;;;;;20.80;7.60;;;;;;;-2.47;96.57;98041.19;5005077;28;20096;-57
2022/12/21 01:33:42;;;;;;;25.13;8.25;;;;;;;-2.46;96.50;98053.66;5005350;28;20053;-61
2022/12/21 01:36:12;;;;;;;29.55;10.40;;;;;;;-3.08;96.34;97952.41;5005390;28;20045;-57
2022/12/21 01:38:40;;;;;;;25.42;10.27;;;;;;;-2.53;96.04;98053.06;4986171;28;20042;-57
2022/12/21 01:41:13;;;;;;;27.48;9.80;;;;;;;-2.49;95.32;98043.34;4985042;28;20488;-56
2022/12/21 01:43:42;;;;;;;;;;;;;;;-2.52;95.42;98032.19;4985296;28;20449;-61
2022/12/21 01:46:15;;;;;;;13.80;5.45;;;;;;;-2.64;96.10;98026.16;4985596;28;19992;-61
2022/12/21 01:48:48;;;;;;;11.77;4.78;;;;;;;-2.92;96.94;97983.97;4985572;28;20050;-57
2022/12/21 01:51:15;;;;;;;11.45;4.07;;;;;;;-2.75;96.68;98011.72;4997368;28;20053;-61
2022/12/21 01:54:07;;;;;;;8.35;3.25;;;;;;;-2.69;97.23;98026.94;5005043;28;20127;-57
2022/12/21 01:56:38;;;;;;;9.82;4.50;;;;;;;-2.69;97.58;98020.72;5003331;28;20394;-57
2022/12/21 01:59:24;;;;;;;11.50;4.22;;;;;;;-2.73;98.00;98031.25;5005213;28;20053;-56
2022/12/21 02:01:51;;;;;;;12.35;5.00;;;;;;;-3.30;97.17;97902.97;5004912;28;20085;-57
2022/12/21 02:04:18;;;;;;;13.45;4.82;;;;;;;-3.40;97.13;97889.38;5004559;28;20057;-61
2022/12/21 02:06:54;;;;;;;18.13;6.20;;;;;;;-2.64;96.94;98002.56;5004871;28;20065;-56
2022/12/21 02:09:23;;;;;;;20.30;7.03;;;;;;;-2.81;96.46;97991.06;5003470;28;20066;-62
2022/12/21 02:11:51;;;;;;;33.85;9.45;;;;;;;-2.78;96.68;97995.97;5001294;28;20127;-62
2022/12/21 02:14:18;;;;;;;27.23;7.97;;;;;;;-2.74;96.21;97997.09;5005003;28;20050;-56
2022/12/21 02:17:24;;;;;;;10.95;4.32;;;;;;;-2.67;95.74;97997.66;5003375;28;20215;-56
2022/12/21 02:20:08;;;;;;;11.75;4.28;;;;;;;-2.77;94.47;98011.19;4993560;28;20081;-62
2022/12/21 02:23:32;;;;;;;10.02;4.15;;;;;;;-2.72;94.79;98003.06;5001219;28;20061;-57
2022/12/21 02:26:15;;;;;;;19.85;6.97;;;;;;;-2.81;93.43;97990.28;5001369;28;20050;-59
2022/12/21 02:29:15;;;;;;;18.03;6.40;;;;;;;-2.82;93.37;97991.34;5001704;28;20053;-61
2022/12/21 02:32:09;;;;;;;17.02;7.55;;;;;;;-2.83;93.38;97987.84;5002816;28;20137;-61
2022/12/21 02:34:47;;;;;;;22.98;8.45;;;;;;;-3.31;93.68;97936.56;5004235;28;20061;-60
2022/12/21 02:37:37;;;;;;;25.40;8.52;;;;;;;-2.97;94.71;97980.41;4998151;28;20050;-61
2022/12/21 02:40:14;;;;;;;25.38;8.60;;;;;;;-3.00;96.08;97976.31;4988503;28;20428;-62
2022/12/21 02:45:57;;;;;;;11.25;5.32;;;;;;;-3.57;95.65;97877.88;5003808;28;20131;-56
2022/12/21 02:49:25;;;;;;;15.32;5.30;;;;;;;-2.83;94.87;97974.28;5002872;28;20081;-62
2022/12/21 02:52:00;;;;;;;12.65;4.72;;;;;;;-3.08;95.80;97944.28;4943025;29;20090;-62
2022/12/21 02:54:27;;;;;;;14.82;5.40;;;;;;;-2.97;96.59;97962.25;4943036;29;20082;-61
2022/12/21 02:56:53;;;;;;;13.90;4.55;;;;;;;-2.96;97.46;97961.19;4965208;28;20505;-57
2022/12/21 02:59:26;;;;;;;21.75;8.98;;;;;;;-2.87;97.34;97970.44;4984789;28;20078;-61
2022/12/21 03:01:59;;;;;;;17.88;6.80;;;;;;;-2.82;96.54;97959.63;4984488;28;20057;-57
2022/12/21 03:04:47;;;;;;;19.25;7.45;;;;;;;-2.91;96.93;97958.50;4984431;28;20149;-56
2022/12/21 03:07:43;;;;;;;18.75;6.90;;;;;;;-2.92;97.32;97946.03;4983222;28;20410;-56
2022/12/21 03:10:27;;;;;;;12.02;5.43;;;;;;;-2.83;96.88;97944.47;4983183;28;20116;-57
2022/12/21 03:13:20;;;;;;;11.88;5.60;;;;;;;-2.95;96.78;97941.13;4984571;28;20583;-56
2022/12/21 03:16:18;;;;;;;10.60;4.70;;;;;;;-3.01;97.15;97931.34;4982720;28;20058;-57
2022/12/21 03:18:54;;;;;;;10.25;4.65;;;;;;;-3.07;97.94;97924.28;4984296;28;20115;-61
2022/12/21 03:21:24;;;;;;;9.05;3.50;;;;;;;-3.26;99.17;97934.69;4984266;28;20081;-61
2022/12/21 03:23:56;;;;;;;11.90;3.53;;;;;;;-3.31;100.00;97948.22;4984576;28;20509;-61
2022/12/21 03:26:30;;;;;;;11.68;4.63;;;;;;;-3.22;100.00;97935.00;4984371;28;20054;-59
2022/12/21 03:28:59;;;;;;;17.27;6.38;;;;;;;-3.12;100.00;97935.06;4984772;28;20058;-54
2022/12/21 03:31:32;;;;;;;14.43;5.07;;;;;;;-3.21;99.52;97939.34;4984133;28;20054;-60
2022/12/21 03:34:24;;;;;;;14.10;8.07;;;;;;;-3.86;98.43;97814.34;4984256;28;20086;-61
2022/12/21 03:37:02;;;;;;;11.88;5.57;;;;;;;-3.12;98.24;97924.22;4984374;28;20050;-55
2022/12/21 03:39:33;;;;;;;10.35;4.57;;;;;;;-3.51;96.87;97860.63;5002739;28;20413;-60
2022/12/21 03:42:29;;;;;;;8.10;4.03;;;;;;;-3.08;97.15;97919.91;4999913;28;20061;-60
2022/12/21 03:45:05;;;;;;;11.55;4.45;;;;;;;-3.03;97.19;97917.22;5002952;28;20097;-61
2022/12/21 03:47:39;;;;;;;11.85;4.45;;;;;;;-2.95;97.79;97911.31;5004027;28;20054;-57
2022/12/21 03:50:12;;;;;;;12.90;4.85;;;;;;;-2.96;98.48;97917.00;5005714;28;20528;-56
2022/12/21 03:52:46;;;;;;;12.35;5.47;;;;;;;-2.97;98.81;97916.19;5005633;28;20139;-56
2022/12/21 03:55:19;;;;;;;11.80;4.20;;;;;;;-3.57;97.10;97850.81;5006641;28;20052;-61
2022/12/21 03:57:46;;;;;;;;;;;;;;;-3.07;95.95;97932.41;5007992;28;20085;-56
2022/12/21 04:00:13;;;;;;;11.55;4.47;;;;;;;-3.10;96.92;97933.72;5001872;28;20352;-57
2022/12/21 04:03:22;;;;;;;13.48;5.15;;;;;;;-3.13;97.05;97925.31;4987846;28;20046;-56
2022/12/21 04:05:52;;;;;;;14.27;5.65;;;;;;;-3.05;97.15;97930.22;4948808;28;20146;-57
2022/12/21 04:08:19;;;;;;;13.45;6.03;;;;;;;-3.73;96.43;97830.16;4996664;28;20529;-55
2022/12/21 04:10:48;;;;;;;15.25;7.00;;;;;;;-3.22;97.15;97910.63;4987311;28;20112;-56
2022/12/21 04:13:15;;;;;;;29.88;9.55;;;;;;;-2.95;97.39;97930.28;4987680;28;20054;-56
2022/12/21 04:21:14;;;;;;;46.05;19.38;;;;;;;-2.94;95.74;97929.19;5003370;28;20053;-56
2022/12/21 04:29:11;;;;;;;27.70;14.25;;;;;;;-2.99;96.72;97926.47;4987457;28;20546;-56
2022/12/21 04:31:38;;;;;;;23.13;9.85;;;;;;;-2.92;96.44;97921.63;4985008;28;20050;-56
2022/12/21 04:34:05;;;;;;;23.40;7.68;;;;;;;-2.89;95.96;97923.81;4987095;28;20058;-57
2022/12/21 04:39:16;;;;;;;22.52;6.32;;;;;;;-2.81;95.41;97920.59;4987337;28;20055;-56
2022/12/21 04:41:43;;;;;;;15.93;6.35;;;;;;;-2.94;95.04;97926.47;4985836;28;20129;-58
2022/12/21 04:44:09;;;;;;;19.77;9.35;;;;;;;-2.89;95.29;97923.81;4985483;28;20112;-61
2022/12/21 04:46:36;;;;;;;17.15;7.30;;;;;;;-3.44;95.27;97851.19;4986521;28;20595;-61
2022/12/21 04:49:03;;;;;;;32.17;12.98;;;;;;;-3.57;95.64;97823.72;4987029;28;20085;-57
2022/12/21 04:51:30;;;;;;;28.58;13.82;;;;;;;-2.96;95.89;97917.81;4984812;28;20086;-57
2022/12/21 04:53:56;;;;;;;15.32;7.30;;;;;;;-2.95;95.19;97921.34;4986395;28;20210;-56
2022/12/21 04:56:23;;;;;;;24.40;10.05;;;;;;;-3.54;95.29;97824.03;4985871;28;20054;-55
2022/12/21 04:58:50;;;;;;;18.13;8.65;;;;;;;-2.93;95.53;97917.28;4985177;28;20050;-59
2022/12/21 05:01:19;;;;;;;18.52;8.20;;;;;;;-3.07;94.47;97918.84;4985978;28;20058;-55
2022/12/21 05:03:47;;;;;;;15.80;7.60;;;;;;;-3.02;94.96;97908.03;4986728;28;20105;-56
2022/12/21 05:06:17;;;;;;;10.60;5.18;;;;;;;-3.01;94.86;97915.09;4984283;28;20449;-61
2022/12/21 05:08:44;;;;;;;14.27;6.43;;;;;;;-3.00;94.45;97927.53;4986416;28;20105;-56
2022/12/21 05:11:22;;;;;;;16.20;6.00;;;;;;;-3.09;95.31;97912.88;4985943;28;20050;-60
2022/12/21 05:13:50;;;;;;;20.63;8.48;;;;;;;-3.08;95.34;97915.31;4984735;28;20402;-61
2022/12/21 05:16:19;;;;;;;21.20;10.00;;;;;;;-3.02;95.35;97905.34;4985115;28;20089;-62
2022/12/21 05:18:48;;;;;;;33.28;13.70;;;;;;;-3.03;95.81;97906.38;4986317;28;20050;-61
2022/12/21 05:21:16;;;;;;;38.85;12.88;;;;;;;-3.17;95.84;97878.16;4985718;28;20069;-55
2022/12/21 05:23:43;;;;;;;43.83;18.80;;;;;;;-3.34;94.78;97843.13;4985778;28;20509;-55
2022/12/21 05:26:10;;;;;;;32.83;13.93;;;;;;;-2.99;93.33;97896.69;4985338;28;20056;-59
2022/12/21 05:28:42;;;;;;;35.10;14.75;;;;;;;-3.07;93.23;97894.47;4984565;28;20453;-61
2022/12/21 05:31:10;;;;;;;28.52;11.52;;;;;;;-3.08;93.50;97903.66;4985541;28;20057;-60
2022/12/21 05:33:37;;;;;;;20.45;8.43;;;;;;;-3.09;94.62;97893.91;4985307;28;20058;-59
2022/12/21 05:36:05;;;;;;;24.15;8.38;;;;;;;-3.00;93.46;97889.59;4988638;28;20045;-60
2022/12/21 05:38:32;;;;;;;20.27;8.55;;;;;;;-4.15;92.82;97716.50;4994245;28;20077;-55
2022/12/21 05:40:59;;;;;;;36.90;12.45;;;;;;;-3.35;93.52;97859.63;4983915;28;20113;-60
2022/12/21 05:43:25;;;;;;;53.30;18.58;;;;;;;-3.20;93.38;97889.50;4985886;28;20058;-61
2022/12/21 05:45:52;;;;;;;86.93;28.45;;;;;;;-3.28;93.79;97887.28;4985872;28;20058;-59
2022/12/21 05:48:20;;;;;;;79.95;28.25;;;;;;;-3.23;93.68;97890.03;4985898;28;20050;-60
2022/12/21 05:50:46;;;;;;;75.30;29.98;;;;;;;-3.21;93.73;97879.75;4985200;28;20540;-55
2022/12/21 05:53:13;;;;;;;60.72;26.90;;;;;;;-3.65;93.55;97805.31;4988511;28;20499;-61
2022/12/21 05:55:43;;;;;;;61.08;26.48;;;;;;;-3.28;93.96;97839.34;4983320;28;21007;-54
2022/12/21 05:58:12;;;;;;;63.92;24.83;;;;;;;-3.12;94.19;97864.63;4985432;28;20062;-61
2022/12/21 06:00:39;;;;;;;62.17;26.25;;;;;;;-3.22;94.52;97848.31;4984745;28;20124;-60
2022/12/21 06:03:06;;;;;;;65.43;27.90;;;;;;;-3.02;94.41;97872.00;4985614;28;20077;-56
2022/12/21 06:05:36;;;;;;;75.93;29.60;;;;;;;-2.91;94.15;97877.22;4983821;28;20130;-56
2022/12/21 06:08:03;;;;;;;62.80;24.45;;;;;;;-2.87;94.11;97877.47;4985195;28;20073;-61
2022/12/21 06:10:30;;;;;;;55.08;19.50;;;;;;;-2.81;94.27;97871.81;4984714;28;20117;-60
2022/12/21 06:12:56;;;;;;;41.65;14.38;;;;;;;-3.47;94.24;97786.72;4984561;28;20117;-60
2022/12/21 06:15:23;;;;;;;26.35;11.32;;;;;;;-3.22;94.91;97805.78;4984740;28;20050;-55
2022/12/21 06:17:50;;;;;;;44.83;17.23;;;;;;;-2.65;94.45;97857.22;4984953;28;20189;-55
2022/12/21 06:20:17;;;;;;;53.90;20.02;;;;;;;-2.61;94.07;97866.47;4984611;28;20474;-61
2022/12/21 06:22:44;;;;;;;39.53;16.58;;;;;;;-3.04;92.86;97782.84;4985028;28;20363;-60
2022/12/21 06:25:11;;;;;;;23.60;12.05;;;;;;;-3.06;92.29;97793.13;4984548;28;20054;-59
2022/12/21 06:27:38;;;;;;;24.33;11.70;;;;;;;-2.41;91.84;97861.09;4985139;28;20263;-56
2022/12/21 06:30:07;;;;;;;25.17;10.15;;;;;;;-2.30;91.13;97857.34;4984803;28;20428;-61
2022/12/21 06:32:33;;;;;;;36.13;15.52;;;;;;;-2.28;91.73;97866.03;4985377;28;20081;-61
2022/12/21 06:35:00;;;;;;;24.30;8.90;;;;;;;-2.45;90.52;97811.19;4984712;28;20050;-57
2022/12/21 06:37:27;;;;;;;35.00;11.20;;;;;;;-2.19;90.66;97858.16;4985053;28;20046;-56
2022/12/21 06:39:54;;;;;;;36.90;13.93;;;;;;;-2.39;91.20;97796.56;4984975;28;20595;-61
2022/12/21 06:42:20;;;;;;;33.55;13.48;;;;;;;-2.05;91.61;97841.09;4984544;28;20068;-57
2022/12/21 06:44:47;;;;;;;35.67;14.40;;;;;;;-2.57;91.17;97725.75;4982776;28;20050;-62
2022/12/21 06:47:14;;;;;;;43.00;20.02;;;;;;;-1.86;90.97;97825.06;4982948;28;20129;-62
2022/12/21 06:49:40;;;;;;;61.22;28.88;;;;;;;-1.52;91.11;97852.47;4983165;28;20053;-55
2022/12/21 06:52:07;;;;;;;67.78;33.03;;;;;;;-1.34;90.17;97850.00;4989213;28;20481;-57
2022/12/21 06:54:34;;;;;;;78.63;34.05;;;;;;;-1.42;89.12;97876.94;4991632;28;20570;-57
2022/12/21 06:57:00;;;;;;;76.43;32.00;;;;;;;-1.33;88.35;97815.50;4997024;28;20054;-58
2022/12/21 06:59:27;;;;;;;32.20;14.95;;;;;;;-1.03;87.27;97834.44;4987342;28;20050;-60
2022/12/21 07:01:55;;;;;;;29.35;14.77;;;;;;;-0.95;87.97;97825.72;4987119;28;20128;-59
2022/12/21 07:04:22;;;;;;;30.63;13.55;;;;;;;-1.72;86.71;97677.63;5002369;28;20516;-57
2022/12/21 07:06:49;;;;;;;33.30;14.50;;;;;;;-0.81;86.75;97805.81;4994067;28;20054;-69
2022/12/21 07:09:15;;;;;;;48.20;18.15;;;;;;;-0.50;86.73;97828.22;4984042;28;20043;-60
2022/12/21 07:11:43;;;;;;;56.88;26.00;;;;;;;-0.73;86.21;97769.88;4988968;28;20051;-58
2022/12/21 07:14:11;;;;;;;47.38;23.42;;;;;;;-0.18;85.32;97820.41;5001254;28;20053;-73
2022/12/21 07:16:38;;;;;;;56.30;26.58;;;;;;;-0.13;84.07;97801.31;5002172;28;20156;-58
2022/12/21 07:19:05;;;;;;;51.55;25.23;;;;;;;0.17;83.32;97811.97;4999760;28;20046;-56
2022/12/21 07:21:31;;;;;;;30.33;14.57;;;;;;;-0.47;82.42;97729.69;5003293;28;20054;-56
2022/12/21 07:23:58;;;;;;;28.88;13.48;;;;;;;-0.47;82.01;97675.28;5004569;28;20460;-64
2022/12/21 07:26:25;;;;;;;27.58;13.52;;;;;;;0.56;81.98;97823.59;5003752;28;20058;-70
2022/12/21 07:28:54;;;;;;;30.45;12.35;;;;;;;0.56;81.48;97820.06;4988488;28;20073;-61
2022/12/21 07:31:24;;;;;;;28.85;13.00;;;;;;;0.79;81.01;97822.81;4987063;28;20145;-55
2022/12/21 07:33:52;;;;;;;22.08;10.63;;;;;;;0.90;80.28;97816.16;4987450;28;20472;-61
2022/12/21 07:36:19;;;;;;;26.58;11.82;;;;;;;1.12;81.04;97808.25;4987196;28;20137;-60
2022/12/21 07:38:45;;;;;;;26.20;13.00;;;;;;;1.28;79.95;97806.97;4997569;28;20129;-61
2022/12/21 07:41:14;;;;;;;29.13;13.93;;;;;;;1.32;78.23;97808.03;5004850;28;20058;-58
2022/12/21 07:43:42;;;;;;;37.45;19.90;;;;;;;1.46;78.92;97800.75;5004929;28;20566;-57
2022/12/21 07:46:09;;;;;;;34.70;17.35;;;;;;;1.62;78.37;97805.97;4996526;28;20077;-59
2022/12/21 07:48:36;;;;;;;27.67;13.98;;;;;;;1.34;77.88;97728.59;4987394;28;20517;-61
2022/12/21 07:51:03;;;;;;;23.13;11.95;;;;;;;2.10;77.93;97802.00;4987915;28;20078;-57
2022/12/21 07:53:30;;;;;;;30.48;15.18;;;;;;;2.07;77.52;97773.31;5000544;28;20118;-58
2022/12/21 07:56:12;;;;;;;31.38;18.00;;;;;;;2.49;76.39;97810.63;4992353;28;20525;-58
2022/12/21 07:58:40;;;;;;;73.50;42.58;;;;;;;2.69;75.77;97810.25;4988661;28;20113;-61
2022/12/21 08:01:12;;;;;;;49.20;28.73;;;;;;;2.80;75.58;97796.09;5000905;28;20543;-60
2022/12/21 08:03:41;;;;;;;30.20;18.75;;;;;;;2.88;74.75;97802.78;4987544;28;20634;-56
2022/12/21 08:06:09;;;;;;;51.75;28.42;;;;;;;3.01;75.18;97796.53;4986678;28;20121;-57
2022/12/21 08:08:37;;;;;;;106.88;53.78;;;;;;;3.22;74.70;97797.75;4986712;28;20046;-62
2022/12/21 08:11:09;;;;;;;53.78;30.17;;;;;;;3.34;74.48;97783.53;5001201;28;20089;-67
2022/12/21 08:13:36;;;;;;;36.67;18.65;;;;;;;3.51;74.76;97790.00;5004655;28;20316;-59
2022/12/21 08:16:05;;;;;;;27.92;16.23;;;;;;;3.65;73.46;97790.78;5005310;28;20046;-61
2022/12/21 08:18:32;;;;;;;30.08;18.23;;;;;;;3.78;72.42;97789.16;5002522;28;20049;-58
2022/12/21 08:20:59;;;;;;;21.73;10.98;;;;;;;3.87;70.09;97782.59;4987151;28;20109;-56
2022/12/21 08:23:26;;;;;;;12.35;6.03;;;;;;;3.89;70.14;97785.06;4990757;28;20121;-62
2022/12/21 08:25:53;;;;;;;6.88;4.22;;;;;;;3.67;70.30;97738.44;4995353;28;20539;-58
2022/12/21 08:28:19;;;;;;;3.85;1.90;;;;;;;3.36;70.76;97781.31;4987570;28;20481;-59
2022/12/21 08:30:46;;;;;;;5.22;1.50;;;;;;;3.02;73.64;97770.75;4997677;28;20052;-57
2022/12/21 08:33:13;;;;;;;5.13;2.10;;;;;;;3.26;73.87;97776.84;5000427;28;20053;-57
2022/12/21 08:35:43;;;;;;;4.43;2.20;;;;;;;3.31;74.98;97789.63;4993617;28;20046;-62
2022/12/21 08:38:09;;;;;;;10.50;2.80;;;;;;;2.29;74.66;97690.72;4992750;28;20140;-59
2022/12/21 08:40:47;;;;;;;7.85;2.97;;;;;;;3.04;75.08;97771.28;5004004;28;20961;-57
2022/12/21 08:43:14;;;;;;;7.03;3.42;;;;;;;2.43;77.83;97779.84;5004310;28;20513;-60
2022/12/21 08:45:41;;;;;;;8.50;3.45;;;;;;;2.11;81.78;97770.81;5001328;28;20046;-57
2022/12/21 08:48:08;;;;;;;5.53;2.58;;;;;;;2.57;80.15;97760.72;4993456;28;20081;-57
2022/12/21 08:50:34;;;;;;;6.72;3.72;;;;;;;2.37;80.59;97711.88;4999748;28;20064;-59
2022/12/21 08:53:01;;;;;;;13.10;5.90;;;;;;;2.69;81.49;97722.72;4985167;28;20050;-61
2022/12/21 08:55:29;;;;;;;15.32;4.47;;;;;;;2.90;81.13;97741.19;4984537;28;20149;-59
2022/12/21 08:57:56;;;;;;;11.43;5.13;;;;;;;3.17;80.05;97713.00;4989151;28;20143;-57
2022/12/21 09:00:24;;;;;;;9.27;3.83;;;;;;;3.21;79.59;97735.88;5011723;28;20085;-61
2022/12/21 09:02:50;;;;;;;8.75;3.90;;;;;;;3.10;79.35;97731.75;4988699;28;20050;-55
2022/12/21 09:05:17;;;;;;;10.82;3.90;;;;;;;3.43;79.65;97722.25;5004609;28;20539;-56
2022/12/21 09:07:44;;;;;;;10.77;4.63;;;;;;;3.75;77.80;97724.81;5005218;28;20173;-67
2022/12/21 09:10:10;;;;;;;7.13;3.40;;;;;;;2.93;75.39;97559.19;4991713;28;20049;-60
2022/12/21 09:12:37;;;;;;;7.75;3.50;;;;;;;4.01;73.10;97723.09;4992690;28;20488;-58
2022/12/21 09:15:05;;;;;;;7.03;3.22;;;;;;;3.36;75.03;97727.38;4999698;28;20049;-55
2022/12/21 09:17:32;;;;;;;5.45;2.63;;;;;;;3.38;75.03;97716.09;4999557;28;20497;-65
2022/12/21 09:19:58;;;;;;;11.25;4.15;;;;;;;3.32;77.01;97715.38;4985037;28;20472;-55
2022/12/21 09:22:25;;;;;;;8.27;2.63;;;;;;;3.24;76.24;97712.59;4989390;28;20460;-63
2022/12/21 09:24:52;;;;;;;8.95;3.67;;;;;;;3.60;75.24;97695.06;5003395;28;20312;-64
2022/12/21 09:27:19;;;;;;;13.48;5.03;;;;;;;3.89;73.92;97703.66;5000776;28;20073;-60
2022/12/21 09:29:45;;;;;;;7.43;2.85;;;;;;;3.69;73.31;97657.56;4999781;28;20421;-60
2022/12/21 09:32:12;;;;;;;6.15;2.55;;;;;;;4.31;73.61;97689.44;5000477;28;20046;-68
2022/12/21 09:34:39;;;;;;;4.57;2.40;;;;;;;4.40;71.26;97662.84;4984586;28;20046;-56
2022/12/21 09:37:06;;;;;;;8.10;2.08;;;;;;;4.75;68.92;97657.50;4999333;28;20054;-56
2022/12/21 09:39:50;;;;;;;4.85;2.20;;;;;;;5.13;68.45;97677.78;4995659;28;20412;-59
2022/12/21 09:42:54;;;;;;;12.02;4.30;;;;;;;5.42;66.53;97675.25;4984678;28;20142;-55
2022/12/21 09:46:02;;;;;;;7.22;2.55;;;;;;;5.40;65.85;97683.00;4987177;28;20050;-59
2022/12/21 09:48:40;;;;;;;5.78;1.83;;;;;;;5.60;64.85;97682.38;4994612;28;20488;-57
2022/12/21 09:51:23;;;;;;;4.05;2.13;;;;;;;5.33;64.47;97682.66;4985420;28;20121;-61
2022/12/21 09:54:01;;;;;;;4.53;2.03;;;;;;;5.70;64.29;97671.88;4984952;28;20069;-57
2022/12/21 09:56:29;;;;;;;5.03;2.20;;;;;;;6.01;63.50;97666.22;4984846;28;20158;-59
2022/12/21 09:59:01;;;;;;;12.70;5.47;;;;;;;6.25;64.15;97660.19;4985579;28;20081;-69
2022/12/21 10:01:27;;;;;;;7.80;3.42;;;;;;;6.56;62.57;97656.03;4991766;28;20108;-60
2022/12/21 10:04:07;;;;;;;15.45;6.90;;;;;;;6.80;61.63;97656.28;5004022;28;20123;-59
2022/12/21 10:07:14;;;;;;;8.00;2.97;;;;;;;6.85;59.89;97653.34;5001723;28;20060;-63
2022/12/21 10:09:52;;;;;;;8.27;2.95;;;;;;;6.89;59.03;97654.28;4992060;28;20057;-61
2022/12/21 10:12:51;;;;;;;9.60;3.83;;;;;;;7.15;59.13;97651.38;4991711;28;20124;-54
2022/12/21 10:15:34;;;;;;;12.15;4.43;;;;;;;7.32;57.99;97641.06;4991892;28;20116;-54
2022/12/21 10:18:21;;;;;;;10.15;5.18;;;;;;;7.09;57.72;97573.66;5001732;28;20046;-59
2022/12/21 10:20:56;;;;;;;16.40;6.00;;;;;;;7.69;57.80;97612.56;4990962;28;20601;-59
2022/12/21 10:23:29;;;;;;;11.15;5.40;;;;;;;7.80;56.92;97631.44;4983363;28;20487;-58
2022/12/21 10:25:58;;;;;;;17.30;6.50;;;;;;;7.56;55.90;97596.28;4982648;28;20086;-56
2022/12/21 10:28:28;;;;;;;10.25;5.63;;;;;;;7.77;56.41;97612.81;4983125;28;20065;-56
2022/12/21 10:31:02;;;;;;;12.45;5.68;;;;;;;7.22;55.64;97517.47;4984237;28;20054;-56
2022/12/21 10:33:29;;;;;;;14.70;7.00;;;;;;;7.43;55.90;97559.59;4984729;28;20472;-59
2022/12/21 10:36:02;;;;;;;13.23;6.47;;;;;;;7.86;55.71;97608.03;4984446;28;20065;-57
2022/12/21 10:38:33;;;;;;;4.22;2.65;;;;;;;7.86;55.32;97605.25;4984313;28;20050;-60
2022/12/21 10:41:04;;;;;;;10.05;6.45;;;;;;;8.01;56.17;97591.66;4986300;28;20077;-59
2022/12/21 10:43:37;;;;;;;9.02;6.03;;;;;;;7.81;54.76;97533.78;4994200;28;20108;-57
2022/12/21 10:46:05;;;;;;;7.63;5.35;;;;;;;7.96;54.10;97536.72;4991534;28;20054;-60
2022/12/21 10:48:33;;;;;;;8.32;5.82;;;;;;;7.85;54.52;97565.06;5003864;28;20120;-58
2022/12/21 10:51:32;;;;;;;7.65;4.05;;;;;;;7.14;56.91;97584.47;5003638;28;20062;-56
2022/12/21 10:54:00;;;;;;;3.33;1.80;;;;;;;7.10;56.85;97577.19;4999921;28;21497;-55
2022/12/21 10:56:28;;;;;;;4.28;2.25;;;;;;;6.92;57.82;97582.03;4992273;28;20046;-60
2022/12/21 10:59:15;;;;;;;12.15;7.30;;;;;;;7.36;56.50;97584.16;4986742;28;20054;-60
2022/12/21 11:01:42;;;;;;;5.05;2.60;;;;;;;7.06;57.24;97577.09;5004268;28;20496;-58
2022/12/21 11:04:15;;;;;;;6.40;2.45;;;;;;;7.05;56.80;97580.97;4998645;28;20349;-59
2022/12/21 11:07:05;;;;;;;4.07;1.80;;;;;;;7.12;56.01;97575.75;4994175;28;20085;-57
2022/12/21 11:10:28;;;;;;;5.35;2.05;;;;;;;7.24;55.83;97566.75;4999666;28;20576;-62
2022/12/21 11:13:17;;;;;;;8.15;2.85;;;;;;;7.49;54.75;97544.47;4987704;28;20046;-59
2022/12/21 11:16:01;;;;;;;4.40;2.70;;;;;;;7.73;54.11;97569.38;5003108;28;20100;-60
2022/12/21 11:18:44;;;;;;;19.25;8.90;;;;;;;7.81;54.88;97551.13;5002516;28;20058;-58
2022/12/21 11:21:25;;;;;;;6.97;3.78;;;;;;;7.61;54.13;97511.44;4994155;28;20076;-62
2022/12/21 11:24:02;;;;;;;6.90;3.47;;;;;;;7.23;53.81;97405.31;5007251;28;20070;-62
2022/12/21 11:26:35;;;;;;;7.53;5.35;;;;;;;8.26;53.33;97540.13;5005692;28;20057;-62
2022/12/21 11:29:13;;;;;;;6.20;3.80;;;;;;;8.16;53.07;97493.59;5007306;28;20559;-57
2022/12/21 11:31:40;;;;;;;3.50;2.38;;;;;;;7.85;51.96;97432.69;5006510;28;20526;-59
2022/12/21 11:34:38;;;;;;;3.45;1.85;;;;;;;8.58;51.55;97533.69;4993197;28;20129;-57
2022/12/21 11:37:26;;;;;;;4.13;3.10;;;;;;;8.68;52.35;97524.94;5003835;28;20078;-62
2022/12/21 11:39:56;;;;;;;6.75;3.05;;;;;;;8.77;51.76;97515.38;5005936;28;20049;-58
2022/12/21 11:42:24;;;;;;;4.63;2.35;;;;;;;8.91;50.84;97520.56;5005424;28;20536;-62
2022/12/21 11:45:23;;;;;;;8.07;2.90;;;;;;;8.32;50.74;97436.63;5006505;28;20061;-63
2022/12/21 11:48:11;;;;;;;15.38;3.30;;;;;;;8.84;52.13;97514.78;4993207;28;20058;-58
2022/12/21 11:51:17;;;;;;;3.90;2.45;;;;;;;8.88;52.26;97515.72;4994631;28;20085;-61
2022/12/21 11:53:49;;;;;;;7.10;3.20;;;;;;;8.95;52.01;97504.88;4990591;28;20509;-56
2022/12/21 11:56:32;;;;;;;6.82;2.75;;;;;;;8.94;51.52;97506.84;4995871;28;20497;-58
2022/12/21 11:59:11;;;;;;;4.93;2.72;;;;;;;9.01;50.14;97509.00;4987183;28;20057;-58
2022/12/21 12:01:37;;;;;;;5.80;3.00;;;;;;;8.96;48.71;97500.97;4988117;28;20054;-57
2022/12/21 12:04:25;;;;;;;9.13;2.67;;;;;;;8.97;48.41;97503.41;4999889;28;20064;-61
2022/12/21 12:07:27;;;;;;;6.35;2.70;;;;;;;8.93;49.46;97496.16;5003972;28;20081;-63
2022/12/21 12:10:20;;;;;;;4.82;2.50;;;;;;;8.60;50.36;97443.84;4991371;28;20054;-62
2022/12/21 12:13:20;;;;;;;7.82;3.70;;;;;;;8.88;50.03;97494.41;5001566;28;20149;-63